Avon Lake, Iowa
Current Conditions -  °F | °C
As of 11:54 AM on Thursday 30 Oct 2014 (Local Time) from KDSM Reporting Station
Few Clouds Few Clouds  
Wind Chill: 14°   Ceiling: Unl
Heat Index: 14°   Visibility: 10mi
Dew Point:   Wind: 0mph
Humidity: 47%   Direction: NA
Pressure: 30.02"   Gusts: NA
Location:  41.4707°N, 93.4797°W
Report Text: KDSM 301654Z 00000KT 10SM FEW110 FEW150 14/03 A3002 RMK AO2 SLP168 T01390028
Loading
Personal Weather Stations






























Interactive Weather Map
Tropical Storm Tracking
New forecast layout! Learn more

10-Day Weather Forecast

Advertisements
Track Severe Weather on mobile